Time;durP1;ratioP1;P1;durP2;ratioP2;P2;SDS_P1;SDS_P2;PMS_P1;PMS_P2;Temp;Humidity;BMP_temperature;BMP_pressure;BME280_temperature;BME280_humidity;BME280_pressure;Samples;Min_cycle;Max_cycle;Signal;HPM_P1;HPM_P2
2022/07/25 00:01:06;;;;;;;;;;;21.90;73.40;;;;;;5051430;28;1454;-65
2022/07/25 00:03:31;;;;;;;;;;;21.90;73.40;;;;;;5053263;28;1897;-67
2022/07/25 00:05:57;;;;;;;;;;;21.90;73.40;;;;;;5048443;28;2244;-67
2022/07/25 00:08:22;;;;;;;;;;;21.90;73.40;;;;;;5055184;28;1158;-64
2022/07/25 00:10:47;;;;;;;;;;;21.90;73.40;;;;;;5056799;28;891;-66
2022/07/25 00:13:13;;;;;;;;;;;21.90;73.40;;;;;;5056424;28;1224;-67
2022/07/25 00:15:38;;;;;;;;;;;21.90;73.40;;;;;;5055979;28;1111;-67
2022/07/25 00:18:04;;;;;;;;;;;21.90;73.40;;;;;;5056313;28;1073;-68
2022/07/25 00:20:29;;;;;;;;;;;21.90;73.40;;;;;;5056332;28;1095;-66
2022/07/25 00:22:55;;;;;;;;;;;21.90;73.40;;;;;;5056223;28;1289;-66
2022/07/25 00:25:20;;;;;;;;;;;21.90;73.40;;;;;;5056016;28;1894;-66
2022/07/25 00:27:45;;;;;;;;;;;21.90;73.40;;;;;;5056120;28;1034;-68
2022/07/25 00:30:11;;;;;;;;;;;21.90;73.40;;;;;;5056123;28;1080;-67
2022/07/25 00:32:37;;;;;;;;;;;21.90;73.40;;;;;;5055804;28;1256;-65
2022/07/25 00:35:02;;;;;;;;;;;21.90;73.40;;;;;;5055790;28;922;-66
2022/07/25 00:37:28;;;;;;;;;;;21.90;73.40;;;;;;5056357;28;732;-66
2022/07/25 00:39:53;;;;;;;;;;;21.90;73.40;;;;;;5056098;28;780;-66
2022/07/25 00:42:19;;;;;;;;;;;21.90;73.40;;;;;;5056000;28;851;-65
2022/07/25 00:44:44;;;;;;;;;;;21.90;73.50;;;;;;5054209;28;1898;-66
2022/07/25 00:47:09;;;;;;;;;;;21.90;73.50;;;;;;5055647;28;1123;-67
2022/07/25 00:49:35;;;;;;;;;;;21.90;73.50;;;;;;5055665;28;1090;-66
2022/07/25 00:52:00;;;;;;;;;;;21.90;73.50;;;;;;5054621;28;685;-66
2022/07/25 00:54:26;;;;;;;;;;;21.90;73.50;;;;;;5047056;28;1972;-64
2022/07/25 00:56:51;;;;;;;;;;;22.00;73.50;;;;;;5053234;28;1259;-66
2022/07/25 00:59:17;;;;;;;;;;;21.90;73.50;;;;;;5055526;28;1097;-64
2022/07/25 01:01:44;;;;;;;;;;;21.90;73.50;;;;;;5056078;28;942;-64
2022/07/25 01:04:09;;;;;;;;;;;21.90;73.50;;;;;;5054948;28;1891;-65
2022/07/25 01:06:35;;;;;;;;;;;21.90;73.50;;;;;;5054307;28;836;-66
2022/07/25 01:09:00;;;;;;;;;;;21.90;73.50;;;;;;5054330;28;860;-64
2022/07/25 01:11:26;;;;;;;;;;;21.90;73.50;;;;;;5050545;28;1345;-65
2022/07/25 01:13:51;;;;;;;;;;;21.90;73.50;;;;;;5052815;28;1276;-66
2022/07/25 01:16:17;;;;;;;;;;;21.90;73.60;;;;;;5055293;28;1084;-66
2022/07/25 01:18:42;;;;;;;;;;;21.90;73.50;;;;;;5055162;28;1174;-66
2022/07/25 01:21:08;;;;;;;;;;;21.90;73.50;;;;;;5055369;28;859;-66
2022/07/25 01:23:33;;;;;;;;;;;21.90;73.50;;;;;;5055161;28;1264;-65
2022/07/25 01:25:59;;;;;;;;;;;22.00;73.60;;;;;;5055027;28;922;-67
2022/07/25 01:28:24;;;;;;;;;;;22.00;73.60;;;;;;5053847;28;899;-64
2022/07/25 01:30:50;;;;;;;;;;;21.90;73.60;;;;;;5053697;28;965;-64
2022/07/25 01:33:15;;;;;;;;;;;21.90;73.60;;;;;;5054758;28;1275;-67
2022/07/25 01:35:41;;;;;;;;;;;21.90;73.60;;;;;;5053754;28;824;-65
2022/07/25 01:38:07;;;;;;;;;;;21.90;73.60;;;;;;5055103;28;779;-65
2022/07/25 01:40:32;;;;;;;;;;;22.00;73.60;;;;;;5055095;28;846;-65
2022/07/25 01:42:57;;;;;;;;;;;21.90;73.60;;;;;;5054774;28;1273;-64
2022/07/25 01:45:23;;;;;;;;;;;22.00;73.60;;;;;;5054386;28;1969;-66
2022/07/25 01:47:48;;;;;;;;;;;21.90;73.60;;;;;;5054909;28;1102;-65
2022/07/25 01:50:14;;;;;;;;;;;21.90;73.60;;;;;;5054688;28;905;-67
2022/07/25 01:52:39;;;;;;;;;;;21.90;73.60;;;;;;5054686;28;1203;-66
2022/07/25 01:55:05;;;;;;;;;;;21.90;73.60;;;;;;5054552;28;827;-65
2022/07/25 01:57:30;;;;;;;;;;;21.90;73.60;;;;;;5055053;28;1005;-64
2022/07/25 01:59:56;;;;;;;;;;;22.00;73.70;;;;;;5053107;28;1189;-65
2022/07/25 02:02:21;;;;;;;;;;;21.90;73.60;;;;;;5054444;28;989;-63
2022/07/25 02:04:47;;;;;;;;;;;21.90;73.60;;;;;;5054726;28;1965;-66
2022/07/25 02:07:12;;;;;;;;;;;22.00;73.70;;;;;;5054751;28;950;-65
2022/07/25 02:09:39;;;;;;;;;;;21.90;73.60;;;;;;5054520;28;807;-66
2022/07/25 02:12:06;;;;;;;;;;;22.00;73.70;;;;;;5054736;28;981;-66
2022/07/25 02:14:32;;;;;;;;;;;22.00;73.70;;;;;;5053799;28;1199;-66
2022/07/25 02:16:57;;;;;;;;;;;21.90;73.60;;;;;;5053087;28;883;-66
2022/07/25 02:19:22;;;;;;;;;;;21.90;73.70;;;;;;5054164;28;1126;-66
2022/07/25 02:21:48;;;;;;;;;;;21.90;73.60;;;;;;5054014;28;722;-66
2022/07/25 02:24:13;;;;;;;;;;;22.00;73.70;;;;;;5052516;28;1902;-66
2022/07/25 02:26:39;;;;;;;;;;;21.90;73.60;;;;;;5052974;28;885;-66
2022/07/25 02:29:04;;;;;;;;;;;22.00;73.70;;;;;;5053886;28;1057;-66
2022/07/25 02:31:30;;;;;;;;;;;21.90;73.70;;;;;;5053956;28;1005;-67
2022/07/25 02:33:55;;;;;;;;;;;22.00;73.70;;;;;;5053515;28;1278;-64
2022/07/25 02:36:21;;;;;;;;;;;22.00;73.70;;;;;;5044885;28;1931;-63
2022/07/25 02:38:46;;;;;;;;;;;22.00;73.70;;;;;;5045114;28;1179;-63
2022/07/25 02:41:11;;;;;;;;;;;21.90;73.70;;;;;;5047605;28;1790;-66
2022/07/25 02:43:37;;;;;;;;;;;21.90;73.70;;;;;;5046610;28;1972;-66
2022/07/25 02:46:02;;;;;;;;;;;21.90;73.70;;;;;;5043804;28;1204;-66
2022/07/25 02:48:28;;;;;;;;;;;22.00;73.80;;;;;;5043952;28;1254;-65
2022/07/25 02:50:53;;;;;;;;;;;21.90;73.70;;;;;;5044262;28;1224;-66
2022/07/25 02:53:19;;;;;;;;;;;22.00;73.80;;;;;;5042668;28;1267;-64
2022/07/25 02:55:44;;;;;;;;;;;21.90;73.70;;;;;;5042005;28;1171;-66
2022/07/25 02:58:10;;;;;;;;;;;21.90;73.70;;;;;;5040381;28;1250;-65
2022/07/25 03:00:36;;;;;;;;;;;22.00;73.80;;;;;;5042096;28;1234;-66
2022/07/25 03:03:01;;;;;;;;;;;22.00;73.80;;;;;;5041104;28;1350;-65
2022/07/25 03:05:26;;;;;;;;;;;21.90;73.70;;;;;;5040049;28;1970;-66
2022/07/25 03:07:52;;;;;;;;;;;21.90;73.70;;;;;;5044003;28;1274;-65
2022/07/25 03:10:17;;;;;;;;;;;22.00;73.80;;;;;;5042970;28;1270;-67
2022/07/25 03:12:43;;;;;;;;;;;21.90;73.80;;;;;;5041956;28;1302;-68
2022/07/25 03:15:08;;;;;;;;;;;21.90;73.70;;;;;;5042404;28;1212;-66
2022/07/25 03:17:34;;;;;;;;;;;22.00;73.80;;;;;;5025051;28;1467;-66
2022/07/25 03:19:59;;;;;;;;;;;21.90;73.80;;;;;;5043451;28;1235;-66
2022/07/25 03:22:25;;;;;;;;;;;21.90;73.80;;;;;;5040945;28;1302;-66
2022/07/25 03:24:50;;;;;;;;;;;21.90;73.80;;;;;;5032932;28;1952;-66
2022/07/25 03:27:16;;;;;;;;;;;22.00;73.80;;;;;;5033032;28;1022;-67
2022/07/25 03:29:41;;;;;;;;;;;21.90;73.70;;;;;;5033315;28;1195;-68
2022/07/25 03:32:07;;;;;;;;;;;21.90;73.80;;;;;;5033253;28;1135;-67
2022/07/25 03:34:33;;;;;;;;;;;22.00;73.80;;;;;;5051550;28;1243;-67
2022/07/25 03:36:59;;;;;;;;;;;22.00;73.80;;;;;;5035251;28;1379;-68
2022/07/25 03:39:24;;;;;;;;;;;22.00;73.80;;;;;;5052043;28;826;-68
2022/07/25 03:41:51;;;;;;;;;;;22.00;73.80;;;;;;5051793;28;1006;-69
2022/07/25 03:44:17;;;;;;;;;;;21.90;73.80;;;;;;5034741;28;1961;-65
2022/07/25 03:46:43;;;;;;;;;;;21.90;73.80;;;;;;5052687;28;1150;-65
2022/07/25 03:49:08;;;;;;;;;;;21.90;73.80;;;;;;5052987;28;851;-65
2022/07/25 03:51:33;;;;;;;;;;;21.90;73.80;;;;;;5052807;28;871;-65
2022/07/25 03:54:02;;;;;;;;;;;21.90;73.80;;;;;;5053033;28;1205;-66
2022/07/25 03:56:27;;;;;;;;;;;21.90;73.80;;;;;;5052905;28;819;-65
2022/07/25 03:58:53;;;;;;;;;;;21.90;73.80;;;;;;5051314;28;1195;-65
2022/07/25 04:01:19;;;;;;;;;;;21.90;73.80;;;;;;5052863;28;799;-66
2022/07/25 04:03:45;;;;;;;;;;;22.00;73.80;;;;;;5052317;28;1898;-66
2022/07/25 04:06:10;;;;;;;;;;;21.90;73.80;;;;;;5051530;28;966;-65
2022/07/25 04:08:35;;;;;;;;;;;22.00;73.90;;;;;;5052613;28;931;-65
2022/07/25 04:11:01;;;;;;;;;;;21.90;73.80;;;;;;5051375;28;986;-66
2022/07/25 04:13:26;;;;;;;;;;;21.90;73.80;;;;;;5051195;28;1205;-66
2022/07/25 04:15:52;;;;;;;;;;;22.00;73.80;;;;;;5052343;28;1006;-65
2022/07/25 04:18:17;;;;;;;;;;;22.00;73.90;;;;;;5052581;28;1124;-66
2022/07/25 04:20:42;;;;;;;;;;;22.00;73.90;;;;;;5052546;28;1153;-66
2022/07/25 04:23:08;;;;;;;;;;;21.90;73.80;;;;;;5052427;28;1205;-65
2022/07/25 04:25:33;;;;;;;;;;;21.90;73.80;;;;;;5052296;28;1902;-67
2022/07/25 04:27:59;;;;;;;;;;;22.00;73.90;;;;;;5052419;28;839;-65
2022/07/25 04:30:24;;;;;;;;;;;21.90;74.50;;;;;;5052476;28;788;-64
2022/07/25 04:32:50;;;;;;;;;;;21.90;73.80;;;;;;5052218;28;1264;-65
2022/07/25 04:35:15;;;;;;;;;;;21.90;73.80;;;;;;5051186;28;982;-65
2022/07/25 04:37:40;;;;;;;;;;;21.90;73.80;;;;;;5052343;28;1030;-64
2022/07/25 04:40:06;;;;;;;;;;;21.90;73.80;;;;;;5051019;28;820;-67
2022/07/25 04:42:31;;;;;;;;;;;22.00;73.90;;;;;;5052061;28;1227;-68
2022/07/25 04:44:57;;;;;;;;;;;22.00;73.90;;;;;;5055242;28;1907;-67
2022/07/25 04:47:22;;;;;;;;;;;21.90;73.80;;;;;;5056080;28;1114;-66
2022/07/25 04:49:48;;;;;;;;;;;21.90;73.80;;;;;;5056029;28;780;-67
2022/07/25 04:52:13;;;;;;;;;;;21.90;73.80;;;;;;5055867;28;1022;-68
2022/07/25 04:54:39;;;;;;;;;;;22.00;73.90;;;;;;5055571;28;1262;-67
2022/07/25 04:57:04;;;;;;;;;;;21.90;73.80;;;;;;5055655;28;851;-67
2022/07/25 04:59:30;;;;;;;;;;;21.90;73.80;;;;;;5054302;28;2192;-67
2022/07/25 05:01:55;;;;;;;;;;;22.00;73.90;;;;;;5054109;28;1641;-68
2022/07/25 05:04:21;;;;;;;;;;;22.00;73.90;;;;;;5054572;28;1910;-67
2022/07/25 05:06:46;;;;;;;;;;;22.00;73.90;;;;;;5054144;28;1214;-68
2022/07/25 05:09:12;;;;;;;;;;;22.00;73.90;;;;;;5055741;28;1611;-70
2022/07/25 05:11:37;;;;;;;;;;;21.90;73.80;;;;;;5055439;28;1370;-70
2022/07/25 05:14:03;;;;;;;;;;;21.90;73.90;;;;;;5055951;28;1209;-71
2022/07/25 05:16:28;;;;;;;;;;;21.90;73.90;;;;;;5054957;28;1050;-71
2022/07/25 05:18:53;;;;;;;;;;;21.90;73.90;;;;;;5056155;28;1615;-69
2022/07/25 05:21:19;;;;;;;;;;;21.90;73.90;;;;;;5056288;28;836;-71
2022/07/25 05:23:44;;;;;;;;;;;22.00;74.00;;;;;;5055675;28;1902;-71
2022/07/25 05:26:10;;;;;;;;;;;21.90;73.90;;;;;;5052409;28;1380;-72
2022/07/25 05:28:35;;;;;;;;;;;21.90;73.90;;;;;;5055500;28;1629;-67
2022/07/25 05:31:01;;;;;;;;;;;21.90;73.90;;;;;;5055526;28;1025;-67
2022/07/25 05:33:26;;;;;;;;;;;21.90;73.90;;;;;;5055018;28;1166;-65
2022/07/25 05:35:52;;;;;;;;;;;22.00;73.90;;;;;;5055071;28;882;-68
2022/07/25 05:38:17;;;;;;;;;;;21.90;73.90;;;;;;5054145;28;919;-70
2022/07/25 05:40:44;;;;;;;;;;;22.00;73.90;;;;;;5055111;28;997;-71
2022/07/25 05:43:10;;;;;;;;;;;22.00;73.90;;;;;;5055062;28;1203;-70
2022/07/25 05:45:35;;;;;;;;;;;21.90;73.90;;;;;;5054676;28;1902;-70
2022/07/25 05:48:00;;;;;;;;;;;22.00;73.90;;;;;;5053799;28;1413;-69
2022/07/25 05:50:26;;;;;;;;;;;21.90;73.90;;;;;;5055103;28;856;-69
2022/07/25 05:52:51;;;;;;;;;;;22.00;74.00;;;;;;5054858;28;1289;-69
2022/07/25 05:55:17;;;;;;;;;;;22.00;74.00;;;;;;5053981;28;887;-68
2022/07/25 05:57:42;;;;;;;;;;;21.90;73.90;;;;;;5047573;28;2307;-69
2022/07/25 06:00:08;;;;;;;;;;;21.90;73.90;;;;;;5050241;28;1353;-70
2022/07/25 06:02:33;;;;;;;;;;;22.00;73.90;;;;;;5054490;28;1564;-69
2022/07/25 06:04:59;;;;;;;;;;;21.90;73.90;;;;;;5054383;28;1902;-66
2022/07/25 06:07:24;;;;;;;;;;;22.00;74.00;;;;;;5054734;28;823;-70
2022/07/25 06:09:50;;;;;;;;;;;22.00;74.00;;;;;;5054549;28;870;-69
2022/07/25 06:12:15;;;;;;;;;;;22.00;73.90;;;;;;5045973;28;1349;-65
2022/07/25 06:14:41;;;;;;;;;;;22.00;73.90;;;;;;5047958;28;1393;-68
2022/07/25 06:17:06;;;;;;;;;;;21.90;73.90;;;;;;5053019;28;990;-69
2022/07/25 06:19:32;;;;;;;;;;;21.90;73.90;;;;;;5048389;28;1543;-68
2022/07/25 06:21:57;;;;;;;;;;;21.90;73.90;;;;;;5051386;28;2007;-68
2022/07/25 06:24:23;;;;;;;;;;;22.00;74.00;;;;;;5051857;28;1909;-68
2022/07/25 06:26:48;;;;;;;;;;;22.00;74.00;;;;;;5053153;28;1133;-69
2022/07/25 06:29:13;;;;;;;;;;;21.90;73.90;;;;;;5053077;28;871;-69
2022/07/25 06:31:39;;;;;;;;;;;21.90;73.90;;;;;;5053173;28;875;-69
2022/07/25 06:34:04;;;;;;;;;;;21.90;73.90;;;;;;5052714;28;1255;-69
2022/07/25 06:36:30;;;;;;;;;;;22.00;73.90;;;;;;5052962;28;1106;-67
2022/07/25 06:38:55;;;;;;;;;;;22.00;73.90;;;;;;5053025;28;868;-66
2022/07/25 06:41:21;;;;;;;;;;;21.90;73.80;;;;;;5051846;28;1633;-66
2022/07/25 06:43:46;;;;;;;;;;;21.90;73.80;;;;;;5052404;28;1961;-68
2022/07/25 06:46:11;;;;;;;;;;;21.90;73.80;;;;;;5052761;28;1009;-66
2022/07/25 06:48:37;;;;;;;;;;;21.90;73.80;;;;;;5051460;28;1087;-66
2022/07/25 06:51:02;;;;;;;;;;;21.90;73.80;;;;;;5052945;28;852;-67
2022/07/25 06:53:28;;;;;;;;;;;22.00;73.90;;;;;;5052695;28;1172;-66
2022/07/25 06:55:53;;;;;;;;;;;22.00;74.00;;;;;;5052549;28;1072;-66
2022/07/25 06:58:19;;;;;;;;;;;21.90;73.80;;;;;;5050535;28;1154;-67
2022/07/25 07:00:45;;;;;;;;;;;21.90;73.80;;;;;;5053522;28;1122;-68
2022/07/25 07:03:10;;;;;;;;;;;21.90;73.80;;;;;;5053442;28;1279;-67
2022/07/25 07:05:36;;;;;;;;;;;21.90;73.90;;;;;;5053190;28;1908;-66
2022/07/25 07:08:01;;;;;;;;;;;21.90;73.80;;;;;;5051300;28;899;-65
2022/07/25 07:10:27;;;;;;;;;;;21.90;73.80;;;;;;5052319;28;835;-66
2022/07/25 07:13:05;;;;;;;;;;;22.00;73.90;;;;;;5052018;28;1184;-67
2022/07/25 07:15:31;;;;;;;;;;;21.90;73.80;;;;;;5053171;28;792;-66
2022/07/25 07:17:56;;;;;;;;;;;22.00;73.90;;;;;;5053212;28;1045;-67
2022/07/25 07:20:22;;;;;;;;;;;21.90;73.80;;;;;;5053194;28;1311;-66
2022/07/25 07:22:47;;;;;;;;;;;22.00;73.80;;;;;;5052974;28;1298;-64
2022/07/25 07:25:16;;;;;;;;;;;21.90;73.80;;;;;;5051545;28;1956;-65
2022/07/25 07:27:42;;;;;;;;;;;21.90;73.80;;;;;;5053108;28;819;-66
2022/07/25 07:30:08;;;;;;;;;;;21.90;73.80;;;;;;5051844;28;1033;-65
2022/07/25 07:32:33;;;;;;;;;;;21.90;73.80;;;;;;5052943;28;1254;-65
2022/07/25 07:34:59;;;;;;;;;;;21.90;73.80;;;;;;5053071;28;895;-65
2022/07/25 07:37:24;;;;;;;;;;;21.90;73.80;;;;;;5052737;28;862;-65
2022/07/25 07:39:50;;;;;;;;;;;21.90;73.80;;;;;;5052898;28;887;-65
2022/07/25 07:42:15;;;;;;;;;;;22.00;73.80;;;;;;5052842;28;1010;-66
2022/07/25 07:44:41;;;;;;;;;;;21.90;73.80;;;;;;5052397;28;1886;-67
2022/07/25 07:47:06;;;;;;;;;;;21.90;73.80;;;;;;5052838;28;1173;-66
2022/07/25 07:49:31;;;;;;;;;;;22.00;73.90;;;;;;5052814;28;803;-67
2022/07/25 07:51:57;;;;;;;;;;;22.00;73.90;;;;;;5051684;28;907;-66
2022/07/25 07:57:07;;;;;;;;;;;21.90;73.80;;;;;;5052865;28;689;-66
2022/07/25 07:59:32;;;;;;;;;;;22.00;73.80;;;;;;5051751;28;804;-67
2022/07/25 08:01:58;;;;;;;;;;;21.90;73.80;;;;;;5052885;28;957;-67
2022/07/25 08:04:23;;;;;;;;;;;22.00;73.80;;;;;;5038160;23;2081;-70
2022/07/25 08:06:49;;;;;;;;;;;22.00;73.90;;;;;;5001696;28;1294;-70
2022/07/25 08:09:14;;;;;;;;;;;21.90;73.80;;;;;;5002794;28;787;-70
2022/07/25 08:11:40;;;;;;;;;;;22.00;73.80;;;;;;4990673;28;1350;-70
2022/07/25 08:14:05;;;;;;;;;;;22.00;73.80;;;;;;4992957;28;1229;-70
2022/07/25 08:16:31;;;;;;;;;;;22.00;73.80;;;;;;4993388;28;839;-69
2022/07/25 08:18:57;;;;;;;;;;;22.00;73.80;;;;;;4996858;28;1186;-69
2022/07/25 08:21:22;;;;;;;;;;;22.00;73.80;;;;;;5016811;28;1005;-69
2022/07/25 08:23:48;;;;;;;;;;;21.90;73.80;;;;;;5016241;28;1201;-69
2022/07/25 08:26:13;;;;;;;;;;;22.00;73.80;;;;;;5016513;28;1899;-68
2022/07/25 08:28:39;;;;;;;;;;;22.00;73.80;;;;;;5016643;28;923;-69
2022/07/25 08:31:05;;;;;;;;;;;22.00;73.80;;;;;;5015497;28;1334;-69
2022/07/25 08:33:30;;;;;;;;;;;22.00;73.80;;;;;;5015240;28;1187;-69
2022/07/25 08:35:57;;;;;;;;;;;21.90;73.80;;;;;;5016240;28;1204;-68
2022/07/25 08:38:23;;;;;;;;;;;22.00;73.80;;;;;;5031578;28;1534;-70
2022/07/25 08:40:49;;;;;;;;;;;22.00;73.80;;;;;;5016559;28;842;-70
2022/07/25 08:43:15;;;;;;;;;;;22.00;73.80;;;;;;5015137;28;890;-70
2022/07/25 08:45:42;;;;;;;;;;;22.00;73.80;;;;;;5015981;28;1961;-69
2022/07/25 08:48:07;;;;;;;;;;;22.00;73.90;;;;;;5016031;28;1134;-71
2022/07/25 08:50:33;;;;;;;;;;;22.00;73.80;;;;;;5014956;28;891;-71
2022/07/25 08:52:58;;;;;;;;;;;22.00;73.90;;;;;;5016055;28;883;-68
2022/07/25 08:55:24;;;;;;;;;;;21.90;73.80;;;;;;5015967;28;1241;-69
2022/07/25 08:57:50;;;;;;;;;;;22.00;74.60;;;;;;5016027;28;1076;-68
2022/07/25 09:00:16;;;;;;;;;;;22.00;73.80;;;;;;5014809;28;958;-70
2022/07/25 09:02:42;;;;;;;;;;;22.00;73.90;;;;;;5016184;28;768;-70
2022/07/25 09:05:07;;;;;;;;;;;22.00;73.80;;;;;;5015491;28;1883;-70
2022/07/25 09:07:39;;;;;;;;;;;22.00;73.80;;;;;;5015982;28;950;-70
2022/07/25 09:10:11;;;;;;;;;;;22.00;73.80;;;;;;5014727;28;934;-70
2022/07/25 09:12:37;;;;;;;;;;;22.00;73.80;;;;;;5015855;28;883;-70
2022/07/25 09:15:03;;;;;;;;;;;22.00;73.80;;;;;;5015688;28;1225;-70
2022/07/25 09:17:28;;;;;;;;;;;22.00;73.80;;;;;;5015648;28;756;-70
2022/07/25 09:19:54;;;;;;;;;;;22.00;73.80;;;;;;5030955;28;1600;-70
2022/07/25 09:22:19;;;;;;;;;;;22.00;73.80;;;;;;5015629;28;824;-70
2022/07/25 09:24:45;;;;;;;;;;;22.00;73.80;;;;;;5013585;28;2263;-70
2022/07/25 09:27:11;;;;;;;;;;;22.00;73.80;;;;;;5013852;28;2186;-70
2022/07/25 09:29:37;;;;;;;;;;;22.00;73.90;;;;;;5029792;28;1197;-69
2022/07/25 09:32:12;;;;;;;;;;;22.00;73.80;;;;;;5014930;28;1135;-69
2022/07/25 09:34:38;;;;;;;;;;;22.00;73.80;;;;;;5015122;28;1242;-71
2022/07/25 09:37:04;;;;;;;;;;;22.00;73.80;;;;;;5015457;28;1009;-71
2022/07/25 09:39:33;;;;;;;;;;;22.00;73.80;;;;;;5015443;28;792;-71
2022/07/25 09:41:58;;;;;;;;;;;22.00;73.80;;;;;;5015278;28;882;-70
2022/07/25 09:44:29;;;;;;;;;;;22.00;73.80;;;;;;5029941;28;1959;-70
2022/07/25 09:47:00;;;;;;;;;;;22.00;73.80;;;;;;5015368;28;1005;-72
2022/07/25 09:49:37;;;;;;;;;;;22.00;73.80;;;;;;5015500;28;926;-72
2022/07/25 09:52:02;;;;;;;;;;;22.00;73.80;;;;;;5015886;28;816;-71
2022/07/25 09:54:28;;;;;;;;;;;22.00;73.70;;;;;;5030060;28;1281;-71
2022/07/25 09:56:54;;;;;;;;;;;22.00;73.70;;;;;;5014309;28;1017;-72
2022/07/25 09:59:19;;;;;;;;;;;22.00;73.70;;;;;;5030584;28;1515;-71
2022/07/25 10:01:47;;;;;;;;;;;22.00;73.70;;;;;;5017434;28;863;-72
2022/07/25 10:04:19;;;;;;;;;;;22.00;73.70;;;;;;5014806;28;1938;-72
2022/07/25 10:06:48;;;;;;;;;;;22.00;73.80;;;;;;5014752;28;799;-72
2022/07/25 10:09:14;;;;;;;;;;;22.00;73.80;;;;;;5016719;28;824;-72
2022/07/25 10:11:59;;;;;;;;;;;22.00;73.70;;;;;;5014277;28;871;-72
2022/07/25 10:14:25;;;;;;;;;;;22.00;73.70;;;;;;5031130;28;1264;-72
2022/07/25 10:16:50;;;;;;;;;;;22.00;73.80;;;;;;5014458;28;804;-72
2022/07/25 10:19:15;;;;;;;;;;;22.00;73.70;;;;;;5015680;28;1222;-72
2022/07/25 10:21:41;;;;;;;;;;;22.00;73.70;;;;;;5014115;28;1335;-72
2022/07/25 10:24:07;;;;;;;;;;;22.00;73.80;;;;;;5027474;28;1946;-70
2022/07/25 10:26:38;;;;;;;;;;;22.00;73.70;;;;;;5047700;28;1612;-72
2022/07/25 10:29:06;;;;;;;;;;;22.00;73.70;;;;;;5029395;28;1218;-71
2022/07/25 10:31:32;;;;;;;;;;;22.00;73.70;;;;;;5044396;28;1394;-71
2022/07/25 10:33:58;;;;;;;;;;;22.00;73.70;;;;;;5043937;28;1338;-70
2022/07/25 10:36:25;;;;;;;;;;;22.00;73.70;;;;;;5023076;28;1081;-69
2022/07/25 10:38:51;;;;;;;;;;;22.00;73.70;;;;;;5022093;28;902;-72
2022/07/25 10:41:16;;;;;;;;;;;22.00;73.70;;;;;;5022214;28;1143;-72
2022/07/25 10:43:42;;;;;;;;;;;22.00;73.70;;;;;;5019759;28;1320;-72
2022/07/25 10:46:12;;;;;;;;;;;22.00;73.70;;;;;;5020465;28;1969;-72
2022/07/25 10:48:38;;;;;;;;;;;22.00;73.70;;;;;;5022732;28;1215;-71
2022/07/25 10:51:10;;;;;;;;;;;22.00;73.70;;;;;;5040272;28;1172;-71
2022/07/25 10:53:45;;;;;;;;;;;22.00;73.70;;;;;;5015969;28;1162;-70
2022/07/25 10:56:13;;;;;;;;;;;22.00;73.70;;;;;;5014027;28;855;-71
2022/07/25 10:58:51;;;;;;;;;;;22.00;73.70;;;;;;5017868;28;808;-70
2022/07/25 11:01:24;;;;;;;;;;;22.00;73.70;;;;;;5032716;28;1045;-70
2022/07/25 11:03:50;;;;;;;;;;;22.00;73.70;;;;;;5032920;28;1197;-68
2022/07/25 11:06:16;;;;;;;;;;;22.00;73.70;;;;;;5035065;28;1902;-68
2022/07/25 11:08:42;;;;;;;;;;;22.00;73.70;;;;;;5021634;28;808;-70
2022/07/25 11:11:08;;;;;;;;;;;22.00;73.70;;;;;;5015921;28;2217;-70
2022/07/25 11:13:37;;;;;;;;;;;22.00;73.70;;;;;;5013502;28;1176;-73
2022/07/25 11:16:02;;;;;;;;;;;22.00;73.70;;;;;;5028663;28;1214;-71
2022/07/25 11:18:35;;;;;;;;;;;22.00;73.70;;;;;;5013105;28;1714;-75
2022/07/25 11:21:01;;;;;;;;;;;22.00;73.70;;;;;;5027886;28;1232;-72
2022/07/25 11:23:27;;;;;;;;;;;22.00;73.70;;;;;;5028611;28;1139;-72
2022/07/25 11:26:02;;;;;;;;;;;22.00;73.70;;;;;;5013238;28;1910;-70
2022/07/25 11:28:35;;;;;;;;;;;22.00;73.70;;;;;;5014130;28;1050;-70
2022/07/25 11:31:02;;;;;;;;;;;22.00;73.70;;;;;;5020269;28;827;-72
2022/07/25 11:33:27;;;;;;;;;;;22.00;73.70;;;;;;5012922;28;1276;-71
2022/07/25 11:35:53;;;;;;;;;;;22.00;73.70;;;;;;5011528;28;1252;-68
2022/07/25 11:38:18;;;;;;;;;;;22.00;73.70;;;;;;5013371;28;1283;-70
2022/07/25 11:40:44;;;;;;;;;;;22.00;73.70;;;;;;5009038;28;1205;-70
2022/07/25 11:43:17;;;;;;;;;;;22.00;73.70;;;;;;5010597;28;1080;-69
2022/07/25 11:45:43;;;;;;;;;;;22.00;73.70;;;;;;5019471;28;1901;-71
2022/07/25 11:48:09;;;;;;;;;;;22.00;73.70;;;;;;5012467;28;1414;-70
2022/07/25 11:50:38;;;;;;;;;;;22.00;73.70;;;;;;5019947;28;1275;-70
2022/07/25 11:53:08;;;;;;;;;;;22.00;73.70;;;;;;5012583;28;2391;-71
2022/07/25 11:55:39;;;;;;;;;;;22.00;73.70;;;;;;5021752;28;1277;-71
2022/07/25 11:58:04;;;;;;;;;;;22.00;73.60;;;;;;5018972;28;1281;-73
2022/07/25 12:00:30;;;;;;;;;;;22.00;73.70;;;;;;5015386;28;1321;-69
2022/07/25 12:03:04;;;;;;;;;;;22.00;73.60;;;;;;5017655;28;1309;-70
2022/07/25 12:05:31;;;;;;;;;;;22.00;73.70;;;;;;5023274;28;1907;-70
2022/07/25 12:07:59;;;;;;;;;;;22.00;73.70;;;;;;5018014;28;1217;-70
2022/07/25 12:10:31;;;;;;;;;;;22.00;73.60;;;;;;5034209;28;1398;-70
2022/07/25 12:12:57;;;;;;;;;;;22.00;73.70;;;;;;5016394;28;1214;-71
2022/07/25 12:15:23;;;;;;;;;;;22.00;73.60;;;;;;5025877;28;1284;-68
2022/07/25 12:17:49;;;;;;;;;;;22.00;73.70;;;;;;5019161;28;1237;-70
2022/07/25 12:20:16;;;;;;;;;;;22.00;73.60;;;;;;5017823;28;1216;-71
2022/07/25 12:22:41;;;;;;;;;;;22.00;73.70;;;;;;5030320;28;1216;-71
2022/07/25 12:25:07;;;;;;;;;;;22.00;73.60;;;;;;5019041;28;1914;-70
2022/07/25 12:27:32;;;;;;;;;;;22.00;73.60;;;;;;5020039;28;791;-69
2022/07/25 12:29:58;;;;;;;;;;;22.00;73.60;;;;;;5019239;28;863;-71
2022/07/25 12:32:23;;;;;;;;;;;22.00;73.60;;;;;;5019338;28;1203;-68
2022/07/25 12:34:49;;;;;;;;;;;22.00;73.60;;;;;;5018122;28;2207;-69
2022/07/25 12:37:14;;;;;;;;;;;22.00;73.60;;;;;;5017414;28;1050;-68
2022/07/25 12:39:40;;;;;;;;;;;22.00;73.60;;;;;;4998641;28;1254;-69
2022/07/25 12:42:06;;;;;;;;;;;22.00;73.60;;;;;;5018847;28;1200;-68
2022/07/25 12:44:31;;;;;;;;;;;22.00;73.60;;;;;;5033850;28;1899;-70
2022/07/25 12:46:56;;;;;;;;;;;22.00;73.70;;;;;;5012227;28;1838;-71
2022/07/25 12:49:22;;;;;;;;;;;22.00;73.60;;;;;;5015978;28;1065;-71
2022/07/25 12:51:47;;;;;;;;;;;22.00;73.60;;;;;;5017264;28;1151;-68
2022/07/25 12:54:14;;;;;;;;;;;22.00;73.60;;;;;;5017914;28;1287;-69
2022/07/25 12:56:40;;;;;;;;;;;22.00;73.60;;;;;;5014487;28;1185;-69
2022/07/25 12:59:05;;;;;;;;;;;22.00;73.60;;;;;;5017202;28;1181;-70
2022/07/25 13:01:31;;;;;;;;;;;22.00;73.60;;;;;;5025443;28;1216;-68
2022/07/25 13:03:56;;;;;;;;;;;22.00;73.60;;;;;;5017546;28;1379;-68
2022/07/25 13:06:21;;;;;;;;;;;22.00;73.60;;;;;;5015210;28;1906;-70
2022/07/25 13:08:47;;;;;;;;;;;22.00;73.60;;;;;;5022202;28;1196;-69
2022/07/25 13:11:12;;;;;;;;;;;22.00;73.60;;;;;;5014533;28;1868;-70
2022/07/25 13:13:38;;;;;;;;;;;22.00;73.60;;;;;;5013832;28;1381;-70
2022/07/25 13:16:04;;;;;;;;;;;22.00;73.70;;;;;;5015148;28;1214;-70
2022/07/25 13:18:29;;;;;;;;;;;22.00;73.60;;;;;;5010783;28;1774;-70
2022/07/25 13:20:54;;;;;;;;;;;22.00;73.60;;;;;;5019023;28;1419;-71
2022/07/25 13:23:20;;;;;;;;;;;22.00;73.60;;;;;;5029580;28;2265;-72
2022/07/25 13:25:45;;;;;;;;;;;22.00;73.60;;;;;;5013928;28;2341;-72
2022/07/25 13:28:11;;;;;;;;;;;22.00;73.60;;;;;;5030102;28;1798;-70
2022/07/25 13:30:36;;;;;;;;;;;22.00;73.60;;;;;;5014814;28;1437;-70
2022/07/25 13:33:02;;;;;;;;;;;22.10;73.70;;;;;;5029654;28;2239;-70
2022/07/25 13:35:27;;;;;;;;;;;22.00;73.60;;;;;;5013698;28;2379;-70
2022/07/25 13:37:54;;;;;;;;;;;22.10;73.70;;;;;;5014254;28;1330;-71
2022/07/25 13:40:20;;;;;;;;;;;22.00;73.60;;;;;;5014521;28;835;-70
2022/07/25 13:42:45;;;;;;;;;;;22.00;73.60;;;;;;5014498;28;893;-70
2022/07/25 13:45:10;;;;;;;;;;;22.00;73.60;;;;;;5014533;28;1976;-70
2022/07/25 13:47:36;;;;;;;;;;;22.10;73.70;;;;;;5014316;28;1989;-70
2022/07/25 13:50:01;;;;;;;;;;;22.10;73.50;;;;;;5024599;28;2108;-69
2022/07/25 13:52:27;;;;;;;;;;;22.00;73.40;;;;;;5014328;28;1123;-70
2022/07/25 13:54:52;;;;;;;;;;;22.00;73.50;;;;;;5029568;28;1294;-71
2022/07/25 13:57:18;;;;;;;;;;;22.00;73.50;;;;;;5030079;28;953;-70
2022/07/25 13:59:44;;;;;;;;;;;22.10;73.50;;;;;;5014975;28;893;-70
2022/07/25 14:02:09;;;;;;;;;;;22.00;73.50;;;;;;5014725;28;951;-70
2022/07/25 14:04:34;;;;;;;;;;;22.00;73.50;;;;;;5042552;23;3480;-68
2022/07/25 14:07:00;;;;;;;;;;;22.10;73.60;;;;;;5002149;28;1632;-68
2022/07/25 14:09:26;;;;;;;;;;;22.00;73.50;;;;;;5010585;28;1120;-69
2022/07/25 14:11:51;;;;;;;;;;;22.10;73.60;;;;;;5014771;28;885;-68
2022/07/25 14:14:17;;;;;;;;;;;22.10;73.60;;;;;;5013813;28;1204;-68
2022/07/25 14:16:42;;;;;;;;;;;22.10;73.60;;;;;;5013458;28;954;-69
2022/07/25 14:19:08;;;;;;;;;;;22.00;73.60;;;;;;4996479;28;1232;-68
2022/07/25 14:21:33;;;;;;;;;;;22.00;73.60;;;;;;4996497;28;1232;-68
2022/07/25 14:23:58;;;;;;;;;;;22.10;73.70;;;;;;5013932;28;1249;-67
2022/07/25 14:26:26;;;;;;;;;;;22.10;73.60;;;;;;4996498;28;1973;-68
2022/07/25 14:28:53;;;;;;;;;;;22.00;73.60;;;;;;5014173;28;1457;-68